OJAI/AMM METAR and TAF weather

Enter ICAO airport designator
Station Type Date Time Source
OJAI METAR 2022/06/26 08:00 UTC NOAA

OJAI 260800Z 27013KT 6000 NSC 25/11 Q1013 NOSIG


Station Type Date Time Source
OJAI Decoded METAR 2022/06/26 08:00 UTC NOAA

Queen Alia Airport, Jordan (OJAI) 31-40N 035-58E
Jun 26, 2022 - 04:00 AM EDT / 2022.06.26 0800 UTC
Wind: from the W (270 degrees) at 15 MPH (13 KT):0
Visibility: 3 mile(s):0
Temperature: 77 F (25 C)
Dew Point: 51 F (11 C)
Relative Humidity: 41%
Pressure (altimeter): 29.91 in. Hg (1013 hPa)
ob: OJAI 260800Z 27013KT 6000 NSC 25/11 Q1013 NOSIG
cycle: 8

Station Type Date Time Source
OJAI TAF 2022/06/26 06:15 UTC NOAA

TAF TAF OJAI 260500Z 2606/2712 29012KT 5000 HZ FEW030
TEMPO 2609/2617 29020KT 4000 BLDU

Example: see airport list